sensor_id;sensor_type;location;lat;lon;timestamp;temperature;humidity
40808;DHT22;26523;52.504;13.498;2023-02-04T00:01:19;3.50;99.90
40808;DHT22;26523;52.504;13.498;2023-02-04T00:03:45;3.50;99.90
40808;DHT22;26523;52.504;13.498;2023-02-04T00:06:11;3.50;99.90
40808;DHT22;26523;52.504;13.498;2023-02-04T00:08:36;3.50;99.90
40808;DHT22;26523;52.504;13.498;2023-02-04T00:11:03;3.40;99.90
40808;DHT22;26523;52.504;13.498;2023-02-04T00:13:28;3.50;99.90
40808;DHT22;26523;52.504;13.498;2023-02-04T00:15:54;3.50;99.90
40808;DHT22;26523;52.504;13.498;2023-02-04T00:18:20;3.50;99.90
40808;DHT22;26523;52.504;13.498;2023-02-04T00:20:45;3.40;99.90
40808;DHT22;26523;52.504;13.498;2023-02-04T00:23:11;3.50;99.90
40808;DHT22;26523;52.504;13.498;2023-02-04T00:25:37;3.40;99.90
40808;DHT22;26523;52.504;13.498;2023-02-04T00:28:02;3.50;99.90
40808;DHT22;26523;52.504;13.498;2023-02-04T00:30:28;3.40;99.90
40808;DHT22;26523;52.504;13.498;2023-02-04T00:32:54;3.40;99.90
40808;DHT22;26523;52.504;13.498;2023-02-04T00:35:21;3.40;99.90
40808;DHT22;26523;52.504;13.498;2023-02-04T00:37:47;3.30;99.90
40808;DHT22;26523;52.504;13.498;2023-02-04T00:40:13;3.20;99.90
40808;DHT22;26523;52.504;13.498;2023-02-04T00:42:39;3.40;99.90
40808;DHT22;26523;52.504;13.498;2023-02-04T00:45:05;3.30;99.90
40808;DHT22;26523;52.504;13.498;2023-02-04T00:47:31;3.30;99.90
40808;DHT22;26523;52.504;13.498;2023-02-04T00:49:57;3.20;99.90
40808;DHT22;26523;52.504;13.498;2023-02-04T00:52:22;3.20;99.90
40808;DHT22;26523;52.504;13.498;2023-02-04T00:54:49;3.20;99.90
40808;DHT22;26523;52.504;13.498;2023-02-04T00:57:14;3.10;99.90
40808;DHT22;26523;52.504;13.498;2023-02-04T00:59:40;3.10;99.90
40808;DHT22;26523;52.504;13.498;2023-02-04T01:02:05;3.00;99.90
40808;DHT22;26523;52.504;13.498;2023-02-04T01:04:31;3.00;99.90
40808;DHT22;26523;52.504;13.498;2023-02-04T01:06:57;3.00;99.90
40808;DHT22;26523;52.504;13.498;2023-02-04T01:09:23;2.90;99.90
40808;DHT22;26523;52.504;13.498;2023-02-04T01:11:49;2.90;99.90
40808;DHT22;26523;52.504;13.498;2023-02-04T01:14:17;2.80;99.90
40808;DHT22;26523;52.504;13.498;2023-02-04T01:16:43;2.70;99.90
40808;DHT22;26523;52.504;13.498;2023-02-04T01:19:09;2.60;99.90
40808;DHT22;26523;52.504;13.498;2023-02-04T01:21:35;2.40;99.90
40808;DHT22;26523;52.504;13.498;2023-02-04T01:24:01;2.30;99.90
40808;DHT22;26523;52.504;13.498;2023-02-04T01:26:27;2.40;99.90
40808;DHT22;26523;52.504;13.498;2023-02-04T01:28:53;2.30;99.90
40808;DHT22;26523;52.504;13.498;2023-02-04T01:31:18;2.20;99.90
40808;DHT22;26523;52.504;13.498;2023-02-04T01:33:44;2.10;99.90
40808;DHT22;26523;52.504;13.498;2023-02-04T01:36:10;2.00;99.90
40808;DHT22;26523;52.504;13.498;2023-02-04T01:38:36;2.00;99.90
40808;DHT22;26523;52.504;13.498;2023-02-04T01:41:02;2.10;99.90
40808;DHT22;26523;52.504;13.498;2023-02-04T01:43:28;2.20;99.90
40808;DHT22;26523;52.504;13.498;2023-02-04T01:45:54;2.10;99.90
40808;DHT22;26523;52.504;13.498;2023-02-04T01:48:21;2.00;99.90
40808;DHT22;26523;52.504;13.498;2023-02-04T01:50:49;1.90;99.90
40808;DHT22;26523;52.504;13.498;2023-02-04T01:53:17;1.90;99.90
40808;DHT22;26523;52.504;13.498;2023-02-04T01:55:43;1.80;99.90
40808;DHT22;26523;52.504;13.498;2023-02-04T01:58:10;1.80;99.90
40808;DHT22;26523;52.504;13.498;2023-02-04T02:00:36;1.70;99.90
40808;DHT22;26523;52.504;13.498;2023-02-04T02:03:04;1.70;99.90
40808;DHT22;26523;52.504;13.498;2023-02-04T02:06:00;1.70;99.90
40808;DHT22;26523;52.504;13.498;2023-02-04T02:08:25;1.70;99.90
40808;DHT22;26523;52.504;13.498;2023-02-04T02:10:51;1.80;99.90
40808;DHT22;26523;52.504;13.498;2023-02-04T02:13:18;1.90;99.90
40808;DHT22;26523;52.504;13.498;2023-02-04T02:15:45;1.90;99.90
40808;DHT22;26523;52.504;13.498;2023-02-04T02:18:11;1.90;99.90
40808;DHT22;26523;52.504;13.498;2023-02-04T02:20:37;2.00;99.90
40808;DHT22;26523;52.504;13.498;2023-02-04T02:25:43;2.10;99.90
40808;DHT22;26523;52.504;13.498;2023-02-04T02:28:12;2.10;99.90
40808;DHT22;26523;52.504;13.498;2023-02-04T02:30:39;2.00;99.90
40808;DHT22;26523;52.504;13.498;2023-02-04T02:33:05;1.90;99.90
40808;DHT22;26523;52.504;13.498;2023-02-04T02:35:31;1.80;99.90
40808;DHT22;26523;52.504;13.498;2023-02-04T02:37:57;1.80;99.90
40808;DHT22;26523;52.504;13.498;2023-02-04T02:40:23;1.70;99.90
40808;DHT22;26523;52.504;13.498;2023-02-04T02:42:50;1.70;99.90
40808;DHT22;26523;52.504;13.498;2023-02-04T02:45:26;1.70;99.90
40808;DHT22;26523;52.504;13.498;2023-02-04T02:47:53;1.60;99.90
40808;DHT22;26523;52.504;13.498;2023-02-04T02:50:24;1.50;99.90
40808;DHT22;26523;52.504;13.498;2023-02-04T02:52:51;1.60;99.90
40808;DHT22;26523;52.504;13.498;2023-02-04T02:55:18;1.50;99.90
40808;DHT22;26523;52.504;13.498;2023-02-04T02:57:47;1.40;99.90
40808;DHT22;26523;52.504;13.498;2023-02-04T03:02:44;1.20;99.90
40808;DHT22;26523;52.504;13.498;2023-02-04T03:05:10;1.20;99.90
40808;DHT22;26523;52.504;13.498;2023-02-04T03:07:36;1.20;99.90
40808;DHT22;26523;52.504;13.498;2023-02-04T03:10:03;1.20;99.90
40808;DHT22;26523;52.504;13.498;2023-02-04T03:12:29;1.10;99.90
40808;DHT22;26523;52.504;13.498;2023-02-04T03:14:55;1.00;99.90
40808;DHT22;26523;52.504;13.498;2023-02-04T03:17:21;1.00;99.90
40808;DHT22;26523;52.504;13.498;2023-02-04T03:19:47;1.00;99.90
40808;DHT22;26523;52.504;13.498;2023-02-04T03:22:13;0.90;99.90
40808;DHT22;26523;52.504;13.498;2023-02-04T03:24:39;0.90;99.90
40808;DHT22;26523;52.504;13.498;2023-02-04T03:27:05;0.90;99.90
40808;DHT22;26523;52.504;13.498;2023-02-04T03:29:31;0.70;99.90
40808;DHT22;26523;52.504;13.498;2023-02-04T03:31:58;0.60;99.90
40808;DHT22;26523;52.504;13.498;2023-02-04T03:34:24;0.60;99.90
40808;DHT22;26523;52.504;13.498;2023-02-04T03:36:50;0.50;99.90
40808;DHT22;26523;52.504;13.498;2023-02-04T03:39:16;0.70;99.90
40808;DHT22;26523;52.504;13.498;2023-02-04T03:41:41;0.60;99.90
40808;DHT22;26523;52.504;13.498;2023-02-04T03:44:07;0.60;99.90
40808;DHT22;26523;52.504;13.498;2023-02-04T03:46:32;0.60;99.90
40808;DHT22;26523;52.504;13.498;2023-02-04T03:48:58;0.60;99.90
40808;DHT22;26523;52.504;13.498;2023-02-04T03:51:24;0.60;99.90
40808;DHT22;26523;52.504;13.498;2023-02-04T03:53:50;0.50;99.90
40808;DHT22;26523;52.504;13.498;2023-02-04T03:56:16;0.50;99.90
40808;DHT22;26523;52.504;13.498;2023-02-04T03:58:42;0.50;99.90
40808;DHT22;26523;52.504;13.498;2023-02-04T04:01:07;0.50;99.90
40808;DHT22;26523;52.504;13.498;2023-02-04T04:03:33;0.60;99.90
40808;DHT22;26523;52.504;13.498;2023-02-04T04:05:59;0.50;99.90
40808;DHT22;26523;52.504;13.498;2023-02-04T04:08:24;0.50;99.90
40808;DHT22;26523;52.504;13.498;2023-02-04T04:10:50;0.50;99.90
40808;DHT22;26523;52.504;13.498;2023-02-04T04:13:16;0.70;99.90
40808;DHT22;26523;52.504;13.498;2023-02-04T04:15:41;0.70;99.90
40808;DHT22;26523;52.504;13.498;2023-02-04T04:18:07;0.70;99.90
40808;DHT22;26523;52.504;13.498;2023-02-04T04:20:32;0.90;99.90
40808;DHT22;26523;52.504;13.498;2023-02-04T04:22:58;0.90;99.90
40808;DHT22;26523;52.504;13.498;2023-02-04T04:25:24;1.00;99.90
40808;DHT22;26523;52.504;13.498;2023-02-04T04:27:49;1.00;99.90
40808;DHT22;26523;52.504;13.498;2023-02-04T04:30:15;1.00;99.90
40808;DHT22;26523;52.504;13.498;2023-02-04T04:32:41;1.00;99.90
40808;DHT22;26523;52.504;13.498;2023-02-04T04:35:07;0.90;99.90
40808;DHT22;26523;52.504;13.498;2023-02-04T04:37:33;0.90;99.90
40808;DHT22;26523;52.504;13.498;2023-02-04T04:39:59;0.70;99.90
40808;DHT22;26523;52.504;13.498;2023-02-04T04:42:26;0.70;99.90
40808;DHT22;26523;52.504;13.498;2023-02-04T04:44:51;0.50;99.90
40808;DHT22;26523;52.504;13.498;2023-02-04T04:47:17;0.50;99.90
40808;DHT22;26523;52.504;13.498;2023-02-04T04:49:42;0.60;99.90
40808;DHT22;26523;52.504;13.498;2023-02-04T04:52:08;0.60;99.90
40808;DHT22;26523;52.504;13.498;2023-02-04T04:54:35;0.50;99.90
40808;DHT22;26523;52.504;13.498;2023-02-04T04:57:01;0.50;99.90
40808;DHT22;26523;52.504;13.498;2023-02-04T04:59:26;0.50;99.90
40808;DHT22;26523;52.504;13.498;2023-02-04T05:01:52;0.60;99.90
40808;DHT22;26523;52.504;13.498;2023-02-04T05:04:17;0.60;99.90
40808;DHT22;26523;52.504;13.498;2023-02-04T05:06:43;0.50;99.90
40808;DHT22;26523;52.504;13.498;2023-02-04T05:09:09;0.50;99.90
40808;DHT22;26523;52.504;13.498;2023-02-04T05:11:35;0.50;99.90
40808;DHT22;26523;52.504;13.498;2023-02-04T05:14:01;0.50;99.90
40808;DHT22;26523;52.504;13.498;2023-02-04T05:16:26;0.50;99.90
40808;DHT22;26523;52.504;13.498;2023-02-04T05:18:52;0.50;99.90
40808;DHT22;26523;52.504;13.498;2023-02-04T05:21:18;0.50;99.90
40808;DHT22;26523;52.504;13.498;2023-02-04T05:23:43;0.50;99.90
40808;DHT22;26523;52.504;13.498;2023-02-04T05:26:09;0.50;99.90
40808;DHT22;26523;52.504;13.498;2023-02-04T05:28:34;0.50;99.90
40808;DHT22;26523;52.504;13.498;2023-02-04T05:31:00;0.50;99.90
40808;DHT22;26523;52.504;13.498;2023-02-04T05:33:26;0.40;99.90
40808;DHT22;26523;52.504;13.498;2023-02-04T05:35:51;0.40;99.90
40808;DHT22;26523;52.504;13.498;2023-02-04T05:38:17;0.30;99.90
40808;DHT22;26523;52.504;13.498;2023-02-04T05:40:43;0.30;99.90
40808;DHT22;26523;52.504;13.498;2023-02-04T05:43:08;0.40;99.90
40808;DHT22;26523;52.504;13.498;2023-02-04T05:45:34;0.30;99.90
40808;DHT22;26523;52.504;13.498;2023-02-04T05:47:59;0.30;99.90
40808;DHT22;26523;52.504;13.498;2023-02-04T05:50:25;0.30;99.90
40808;DHT22;26523;52.504;13.498;2023-02-04T05:52:51;0.30;99.90
40808;DHT22;26523;52.504;13.498;2023-02-04T05:55:16;0.20;99.90
40808;DHT22;26523;52.504;13.498;2023-02-04T05:57:42;0.30;99.90
40808;DHT22;26523;52.504;13.498;2023-02-04T06:00:09;0.30;99.90
40808;DHT22;26523;52.504;13.498;2023-02-04T06:02:36;0.30;99.90
40808;DHT22;26523;52.504;13.498;2023-02-04T06:05:01;0.30;99.90
40808;DHT22;26523;52.504;13.498;2023-02-04T06:07:27;0.20;99.90
40808;DHT22;26523;52.504;13.498;2023-02-04T06:09:52;0.20;99.90
40808;DHT22;26523;52.504;13.498;2023-02-04T06:12:18;0.00;99.90
40808;DHT22;26523;52.504;13.498;2023-02-04T06:14:44;0.00;99.90
40808;DHT22;26523;52.504;13.498;2023-02-04T06:17:09;0.10;99.90
40808;DHT22;26523;52.504;13.498;2023-02-04T06:19:35;0.10;99.90
40808;DHT22;26523;52.504;13.498;2023-02-04T06:22:01;0.00;99.90
40808;DHT22;26523;52.504;13.498;2023-02-04T06:24:26;0.00;99.90
40808;DHT22;26523;52.504;13.498;2023-02-04T06:26:52;0.00;99.90
40808;DHT22;26523;52.504;13.498;2023-02-04T06:29:17;-0.10;99.90
40808;DHT22;26523;52.504;13.498;2023-02-04T06:31:43;-0.10;99.90
40808;DHT22;26523;52.504;13.498;2023-02-04T06:34:09;-0.20;99.90
40808;DHT22;26523;52.504;13.498;2023-02-04T06:36:34;-0.20;99.90
40808;DHT22;26523;52.504;13.498;2023-02-04T06:39:00;-0.20;99.90
40808;DHT22;26523;52.504;13.498;2023-02-04T06:41:26;-0.20;99.90
40808;DHT22;26523;52.504;13.498;2023-02-04T06:43:52;-0.20;99.90
40808;DHT22;26523;52.504;13.498;2023-02-04T06:46:17;-0.30;99.90
40808;DHT22;26523;52.504;13.498;2023-02-04T06:48:43;-0.30;99.90
40808;DHT22;26523;52.504;13.498;2023-02-04T06:51:09;-0.20;99.90
40808;DHT22;26523;52.504;13.498;2023-02-04T06:53:34;-0.20;99.90
40808;DHT22;26523;52.504;13.498;2023-02-04T06:56:00;-0.20;99.90
40808;DHT22;26523;52.504;13.498;2023-02-04T06:58:26;-0.30;99.90
40808;DHT22;26523;52.504;13.498;2023-02-04T07:00:51;-0.30;99.90
40808;DHT22;26523;52.504;13.498;2023-02-04T07:03:17;-0.20;99.90
40808;DHT22;26523;52.504;13.498;2023-02-04T07:05:43;-0.20;99.90
40808;DHT22;26523;52.504;13.498;2023-02-04T07:08:08;-0.20;99.90
40808;DHT22;26523;52.504;13.498;2023-02-04T07:10:34;-0.20;99.90
40808;DHT22;26523;52.504;13.498;2023-02-04T07:13:00;-0.20;99.90
40808;DHT22;26523;52.504;13.498;2023-02-04T07:15:25;-0.10;99.90
40808;DHT22;26523;52.504;13.498;2023-02-04T07:17:51;0.00;99.90
40808;DHT22;26523;52.504;13.498;2023-02-04T07:20:18;-0.10;99.90
40808;DHT22;26523;52.504;13.498;2023-02-04T07:22:44;-0.20;99.90
40808;DHT22;26523;52.504;13.498;2023-02-04T07:25:09;-0.20;99.90
40808;DHT22;26523;52.504;13.498;2023-02-04T07:27:35;-0.20;99.90
40808;DHT22;26523;52.504;13.498;2023-02-04T07:30:01;-0.30;99.90
40808;DHT22;26523;52.504;13.498;2023-02-04T07:32:27;-0.30;99.90
40808;DHT22;26523;52.504;13.498;2023-02-04T07:34:57;-0.20;99.90
40808;DHT22;26523;52.504;13.498;2023-02-04T07:37:22;-0.10;99.90
40808;DHT22;26523;52.504;13.498;2023-02-04T07:39:48;-0.10;99.90
40808;DHT22;26523;52.504;13.498;2023-02-04T07:42:14;0.00;99.90
40808;DHT22;26523;52.504;13.498;2023-02-04T07:44:39;0.10;99.90
40808;DHT22;26523;52.504;13.498;2023-02-04T07:47:05;0.10;99.90
40808;DHT22;26523;52.504;13.498;2023-02-04T07:49:30;0.20;99.90
40808;DHT22;26523;52.504;13.498;2023-02-04T07:51:56;0.30;99.90
40808;DHT22;26523;52.504;13.498;2023-02-04T07:54:22;0.30;99.90
40808;DHT22;26523;52.504;13.498;2023-02-04T07:56:48;0.40;99.90
40808;DHT22;26523;52.504;13.498;2023-02-04T07:59:14;0.40;99.90
40808;DHT22;26523;52.504;13.498;2023-02-04T08:01:39;0.50;99.90
40808;DHT22;26523;52.504;13.498;2023-02-04T08:04:05;0.60;99.90
40808;DHT22;26523;52.504;13.498;2023-02-04T08:06:30;0.60;99.90
40808;DHT22;26523;52.504;13.498;2023-02-04T08:08:56;0.70;99.90
40808;DHT22;26523;52.504;13.498;2023-02-04T08:11:22;0.70;99.90
40808;DHT22;26523;52.504;13.498;2023-02-04T08:13:48;0.70;99.90
40808;DHT22;26523;52.504;13.498;2023-02-04T08:16:13;0.80;99.90
40808;DHT22;26523;52.504;13.498;2023-02-04T08:18:39;0.90;99.90
40808;DHT22;26523;52.504;13.498;2023-02-04T08:21:05;1.00;99.90
40808;DHT22;26523;52.504;13.498;2023-02-04T08:23:31;0.90;99.90
40808;DHT22;26523;52.504;13.498;2023-02-04T08:25:57;0.90;99.90
40808;DHT22;26523;52.504;13.498;2023-02-04T08:28:24;1.10;99.90
40808;DHT22;26523;52.504;13.498;2023-02-04T08:30:50;1.10;99.90
40808;DHT22;26523;52.504;13.498;2023-02-04T08:33:15;1.10;99.90
40808;DHT22;26523;52.504;13.498;2023-02-04T08:35:41;1.20;99.90
40808;DHT22;26523;52.504;13.498;2023-02-04T08:38:07;1.20;99.90
40808;DHT22;26523;52.504;13.498;2023-02-04T08:40:32;1.20;99.90
40808;DHT22;26523;52.504;13.498;2023-02-04T08:42:58;1.20;99.90
40808;DHT22;26523;52.504;13.498;2023-02-04T08:45:24;1.30;99.90
40808;DHT22;26523;52.504;13.498;2023-02-04T08:47:49;1.30;99.90
40808;DHT22;26523;52.504;13.498;2023-02-04T08:50:15;1.50;99.90
40808;DHT22;26523;52.504;13.498;2023-02-04T08:52:41;1.60;99.90
40808;DHT22;26523;52.504;13.498;2023-02-04T08:55:07;1.60;99.90
40808;DHT22;26523;52.504;13.498;2023-02-04T08:57:33;1.70;99.90
40808;DHT22;26523;52.504;13.498;2023-02-04T08:59:59;1.60;99.90
40808;DHT22;26523;52.504;13.498;2023-02-04T09:02:25;1.70;99.90
40808;DHT22;26523;52.504;13.498;2023-02-04T09:04:51;1.70;99.90
40808;DHT22;26523;52.504;13.498;2023-02-04T09:07:16;1.70;99.90
40808;DHT22;26523;52.504;13.498;2023-02-04T09:09:42;1.80;99.90
40808;DHT22;26523;52.504;13.498;2023-02-04T09:12:07;1.90;99.90
40808;DHT22;26523;52.504;13.498;2023-02-04T09:14:33;1.90;99.90
40808;DHT22;26523;52.504;13.498;2023-02-04T09:16:59;2.00;99.90
40808;DHT22;26523;52.504;13.498;2023-02-04T09:19:24;2.10;99.90
40808;DHT22;26523;52.504;13.498;2023-02-04T09:21:53;2.30;99.90
40808;DHT22;26523;52.504;13.498;2023-02-04T09:24:19;2.40;99.90
40808;DHT22;26523;52.504;13.498;2023-02-04T09:26:48;2.40;99.90
40808;DHT22;26523;52.504;13.498;2023-02-04T09:29:13;2.30;99.90
40808;DHT22;26523;52.504;13.498;2023-02-04T09:31:39;2.40;99.90
40808;DHT22;26523;52.504;13.498;2023-02-04T09:34:06;2.40;99.90
40808;DHT22;26523;52.504;13.498;2023-02-04T09:36:31;2.40;99.90
40808;DHT22;26523;52.504;13.498;2023-02-04T09:39:05;2.50;99.90
40808;DHT22;26523;52.504;13.498;2023-02-04T09:41:32;2.60;99.90
40808;DHT22;26523;52.504;13.498;2023-02-04T09:43:59;2.60;99.90
40808;DHT22;26523;52.504;13.498;2023-02-04T09:46:26;2.70;99.90
40808;DHT22;26523;52.504;13.498;2023-02-04T09:48:56;2.80;99.90
40808;DHT22;26523;52.504;13.498;2023-02-04T09:51:26;2.90;99.90
40808;DHT22;26523;52.504;13.498;2023-02-04T09:53:59;3.10;99.90
40808;DHT22;26523;52.504;13.498;2023-02-04T09:56:27;3.10;99.90
40808;DHT22;26523;52.504;13.498;2023-02-04T09:58:52;3.10;99.90
40808;DHT22;26523;52.504;13.498;2023-02-04T10:01:19;3.20;99.90
40808;DHT22;26523;52.504;13.498;2023-02-04T10:03:46;3.30;99.90
40808;DHT22;26523;52.504;13.498;2023-02-04T10:06:14;3.40;99.90
40808;DHT22;26523;52.504;13.498;2023-02-04T10:08:42;3.50;99.90
40808;DHT22;26523;52.504;13.498;2023-02-04T10:11:09;3.70;99.90
40808;DHT22;26523;52.504;13.498;2023-02-04T10:13:41;3.90;99.90
40808;DHT22;26523;52.504;13.498;2023-02-04T10:16:22;4.00;99.90
40808;DHT22;26523;52.504;13.498;2023-02-04T10:19:13;4.00;99.90
40808;DHT22;26523;52.504;13.498;2023-02-04T10:21:43;4.00;99.90
40808;DHT22;26523;52.504;13.498;2023-02-04T10:24:27;4.00;99.90
40808;DHT22;26523;52.504;13.498;2023-02-04T10:27:06;4.00;99.90
40808;DHT22;26523;52.504;13.498;2023-02-04T10:29:32;4.00;99.90
40808;DHT22;26523;52.504;13.498;2023-02-04T10:31:58;4.00;99.90
40808;DHT22;26523;52.504;13.498;2023-02-04T10:34:33;4.00;99.90
40808;DHT22;26523;52.504;13.498;2023-02-04T10:37:11;4.20;99.90
40808;DHT22;26523;52.504;13.498;2023-02-04T10:39:42;4.10;99.90
40808;DHT22;26523;52.504;13.498;2023-02-04T10:42:23;4.10;99.90
40808;DHT22;26523;52.504;13.498;2023-02-04T10:44:49;4.10;99.90
40808;DHT22;26523;52.504;13.498;2023-02-04T10:47:16;4.10;99.90
40808;DHT22;26523;52.504;13.498;2023-02-04T10:50:16;4.20;99.90
40808;DHT22;26523;52.504;13.498;2023-02-04T10:52:44;4.60;99.90
40808;DHT22;26523;52.504;13.498;2023-02-04T10:55:14;4.90;99.90
40808;DHT22;26523;52.504;13.498;2023-02-04T10:57:42;5.00;99.90
40808;DHT22;26523;52.504;13.498;2023-02-04T11:00:18;5.10;99.90
40808;DHT22;26523;52.504;13.498;2023-02-04T11:05:32;4.80;99.90
40808;DHT22;26523;52.504;13.498;2023-02-04T11:07:58;4.70;99.90
40808;DHT22;26523;52.504;13.498;2023-02-04T11:10:29;4.60;99.90
40808;DHT22;26523;52.504;13.498;2023-02-04T11:18:04;4.70;99.90
40808;DHT22;26523;52.504;13.498;2023-02-04T11:20:32;4.90;99.90
40808;DHT22;26523;52.504;13.498;2023-02-04T11:26:11;5.10;99.90
40808;DHT22;26523;52.504;13.498;2023-02-04T11:31:27;4.90;99.90
40808;DHT22;26523;52.504;13.498;2023-02-04T11:36:54;4.90;99.90
40808;DHT22;26523;52.504;13.498;2023-02-04T11:39:47;5.00;99.90
40808;DHT22;26523;52.504;13.498;2023-02-04T11:42:32;5.20;99.90
40808;DHT22;26523;52.504;13.498;2023-02-04T11:45:36;5.40;99.90
40808;DHT22;26523;52.504;13.498;2023-02-04T11:48:11;5.40;99.90
40808;DHT22;26523;52.504;13.498;2023-02-04T11:50:38;5.40;99.90
40808;DHT22;26523;52.504;13.498;2023-02-04T11:53:04;5.30;99.90
40808;DHT22;26523;52.504;13.498;2023-02-04T11:55:33;5.30;99.90
40808;DHT22;26523;52.504;13.498;2023-02-04T11:57:59;5.40;99.90
40808;DHT22;26523;52.504;13.498;2023-02-04T12:00:28;5.50;99.90
40808;DHT22;26523;52.504;13.498;2023-02-04T12:03:03;5.40;99.90
40808;DHT22;26523;52.504;13.498;2023-02-04T12:05:41;5.30;99.90
40808;DHT22;26523;52.504;13.498;2023-02-04T12:08:12;5.10;99.90
40808;DHT22;26523;52.504;13.498;2023-02-04T12:10:38;5.10;99.90
40808;DHT22;26523;52.504;13.498;2023-02-04T12:13:12;5.10;99.90
40808;DHT22;26523;52.504;13.498;2023-02-04T12:15:40;5.10;99.90
40808;DHT22;26523;52.504;13.498;2023-02-04T12:18:10;5.10;99.90
40808;DHT22;26523;52.504;13.498;2023-02-04T12:20:40;5.10;99.90
40808;DHT22;26523;52.504;13.498;2023-02-04T12:23:06;5.10;99.90
40808;DHT22;26523;52.504;13.498;2023-02-04T12:25:33;4.80;99.90
40808;DHT22;26523;52.504;13.498;2023-02-04T12:27:58;4.70;99.90
40808;DHT22;26523;52.504;13.498;2023-02-04T12:30:25;4.60;99.90
40808;DHT22;26523;52.504;13.498;2023-02-04T12:32:51;4.50;99.90
40808;DHT22;26523;52.504;13.498;2023-02-04T12:35:17;4.50;99.90
40808;DHT22;26523;52.504;13.498;2023-02-04T12:37:43;4.50;99.90
40808;DHT22;26523;52.504;13.498;2023-02-04T12:40:17;4.40;99.90
40808;DHT22;26523;52.504;13.498;2023-02-04T12:42:43;4.40;99.90
40808;DHT22;26523;52.504;13.498;2023-02-04T12:45:10;4.40;99.90
40808;DHT22;26523;52.504;13.498;2023-02-04T12:47:37;4.30;99.90
40808;DHT22;26523;52.504;13.498;2023-02-04T12:50:03;4.20;99.90
40808;DHT22;26523;52.504;13.498;2023-02-04T12:52:29;4.20;99.90
40808;DHT22;26523;52.504;13.498;2023-02-04T12:54:54;4.10;99.90
40808;DHT22;26523;52.504;13.498;2023-02-04T12:57:20;3.90;99.90
40808;DHT22;26523;52.504;13.498;2023-02-04T12:59:46;3.80;99.90
40808;DHT22;26523;52.504;13.498;2023-02-04T13:02:13;3.70;99.90
40808;DHT22;26523;52.504;13.498;2023-02-04T13:04:39;3.70;99.90
40808;DHT22;26523;52.504;13.498;2023-02-04T13:07:09;3.70;99.90
40808;DHT22;26523;52.504;13.498;2023-02-04T13:09:35;3.70;99.90
40808;DHT22;26523;52.504;13.498;2023-02-04T13:12:01;3.80;99.90
40808;DHT22;26523;52.504;13.498;2023-02-04T13:14:27;3.90;99.90
40808;DHT22;26523;52.504;13.498;2023-02-04T13:16:53;4.10;99.90
40808;DHT22;26523;52.504;13.498;2023-02-04T13:19:18;4.20;99.90
40808;DHT22;26523;52.504;13.498;2023-02-04T13:21:44;4.20;99.90
40808;DHT22;26523;52.504;13.498;2023-02-04T13:24:10;4.20;99.90
40808;DHT22;26523;52.504;13.498;2023-02-04T13:26:35;4.00;99.90
40808;DHT22;26523;52.504;13.498;2023-02-04T13:29:01;4.00;99.90
40808;DHT22;26523;52.504;13.498;2023-02-04T13:31:27;3.90;99.90
40808;DHT22;26523;52.504;13.498;2023-02-04T13:33:52;3.90;99.90
40808;DHT22;26523;52.504;13.498;2023-02-04T13:36:18;4.10;99.90
40808;DHT22;26523;52.504;13.498;2023-02-04T13:38:44;4.30;99.90
40808;DHT22;26523;52.504;13.498;2023-02-04T13:41:09;4.40;99.90
40808;DHT22;26523;52.504;13.498;2023-02-04T13:43:35;4.70;99.90
40808;DHT22;26523;52.504;13.498;2023-02-04T13:46:01;4.80;99.90
40808;DHT22;26523;52.504;13.498;2023-02-04T13:48:28;4.90;99.90
40808;DHT22;26523;52.504;13.498;2023-02-04T13:50:54;4.80;99.90
40808;DHT22;26523;52.504;13.498;2023-02-04T13:53:20;4.80;99.90
40808;DHT22;26523;52.504;13.498;2023-02-04T13:55:46;4.70;99.90
40808;DHT22;26523;52.504;13.498;2023-02-04T13:58:11;4.70;99.90
40808;DHT22;26523;52.504;13.498;2023-02-04T14:00:37;4.80;99.90
40808;DHT22;26523;52.504;13.498;2023-02-04T14:03:03;4.80;99.90
40808;DHT22;26523;52.504;13.498;2023-02-04T14:05:28;4.70;99.90
40808;DHT22;26523;52.504;13.498;2023-02-04T14:07:54;4.50;99.90
40808;DHT22;26523;52.504;13.498;2023-02-04T14:10:20;4.20;99.90
40808;DHT22;26523;52.504;13.498;2023-02-04T14:12:52;3.80;99.90
40808;DHT22;26523;52.504;13.498;2023-02-04T14:15:18;3.70;99.90
40808;DHT22;26523;52.504;13.498;2023-02-04T14:17:44;3.40;99.90
40808;DHT22;26523;52.504;13.498;2023-02-04T14:20:10;3.20;99.90
40808;DHT22;26523;52.504;13.498;2023-02-04T14:22:35;3.40;99.90
40808;DHT22;26523;52.504;13.498;2023-02-04T14:25:01;3.40;99.90
40808;DHT22;26523;52.504;13.498;2023-02-04T14:27:27;3.50;99.90
40808;DHT22;26523;52.504;13.498;2023-02-04T14:29:52;3.50;99.90
40808;DHT22;26523;52.504;13.498;2023-02-04T14:32:18;3.60;99.90
40808;DHT22;26523;52.504;13.498;2023-02-04T14:34:45;3.60;99.90
40808;DHT22;26523;52.504;13.498;2023-02-04T14:37:11;3.60;99.90
40808;DHT22;26523;52.504;13.498;2023-02-04T14:39:37;3.70;99.90
40808;DHT22;26523;52.504;13.498;2023-02-04T14:42:02;3.70;99.90
40808;DHT22;26523;52.504;13.498;2023-02-04T14:44:30;3.60;99.90
40808;DHT22;26523;52.504;13.498;2023-02-04T14:46:55;3.60;99.90
40808;DHT22;26523;52.504;13.498;2023-02-04T14:49:21;3.50;99.90
40808;DHT22;26523;52.504;13.498;2023-02-04T14:51:47;3.50;99.90
40808;DHT22;26523;52.504;13.498;2023-02-04T14:54:12;3.50;99.90
40808;DHT22;26523;52.504;13.498;2023-02-04T14:56:39;3.60;99.90
40808;DHT22;26523;52.504;13.498;2023-02-04T14:59:05;3.60;99.90
40808;DHT22;26523;52.504;13.498;2023-02-04T15:01:30;3.60;99.90
40808;DHT22;26523;52.504;13.498;2023-02-04T15:03:56;3.60;99.90
40808;DHT22;26523;52.504;13.498;2023-02-04T15:06:22;3.60;99.90
40808;DHT22;26523;52.504;13.498;2023-02-04T15:08:48;3.50;99.90
40808;DHT22;26523;52.504;13.498;2023-02-04T15:11:13;3.50;99.90
40808;DHT22;26523;52.504;13.498;2023-02-04T15:13:39;3.50;99.90
40808;DHT22;26523;52.504;13.498;2023-02-04T15:16:05;3.50;99.90
40808;DHT22;26523;52.504;13.498;2023-02-04T15:18:30;3.20;99.90
40808;DHT22;26523;52.504;13.498;2023-02-04T15:20:56;3.10;99.90
40808;DHT22;26523;52.504;13.498;2023-02-04T15:23:22;3.10;99.90
40808;DHT22;26523;52.504;13.498;2023-02-04T15:25:48;2.90;99.90
40808;DHT22;26523;52.504;13.498;2023-02-04T15:28:16;2.80;99.90
40808;DHT22;26523;52.504;13.498;2023-02-04T15:30:41;2.70;99.90
40808;DHT22;26523;52.504;13.498;2023-02-04T15:33:07;2.60;99.90
40808;DHT22;26523;52.504;13.498;2023-02-04T15:35:32;2.50;99.90
40808;DHT22;26523;52.504;13.498;2023-02-04T15:37:58;2.50;99.90
40808;DHT22;26523;52.504;13.498;2023-02-04T15:40:24;2.50;99.90
40808;DHT22;26523;52.504;13.498;2023-02-04T15:42:49;2.30;99.90
40808;DHT22;26523;52.504;13.498;2023-02-04T15:45:17;2.20;99.90
40808;DHT22;26523;52.504;13.498;2023-02-04T15:47:43;2.00;99.90
40808;DHT22;26523;52.504;13.498;2023-02-04T15:50:09;2.10;99.90